Terminal Aerodrome Forecast
Issued by NWS

Current Version | Previous Version | Text Only | Print | Product List | Glossary On
Versions: 1 2 3 4 5 6 7 8 9 10 11 12 13 14 15 16 17 18 19 20 21 22 23 24 25 26 27 28 29 30 31 32
000
FTUS43 KPAH 260904 AAA
TAFOWB
TAF AMD
KOWB 260904Z 2609/2706 17006KT P6SM -SHRA SCT025 BKN050
      TEMPO 2609/2613 4SM SHRA BR BKN015
     FM261600 21010KT 6SM -SHRA BR BKN025
      TEMPO 2616/2620 4SM SHRA BR BKN015
     FM262000 22013G21KT P6SM BKN040
     FM270000 20004KT P6SM SCT040 BKN250=

USA.gov is the U.S. government's official web portal to all federal, state and local government web resources and services.